createdAt,value
2023-04-09T00:01:09.764Z,100.00
2023-04-09T00:03:40.667Z,100.00
2023-04-09T00:06:09.567Z,100.00
2023-04-09T00:08:37.943Z,100.00
2023-04-09T00:11:07.106Z,100.00
2023-04-09T00:13:39.094Z,100.00
2023-04-09T00:16:10.523Z,100.00
2023-04-09T00:18:38.786Z,100.00
2023-04-09T00:21:08.784Z,100.00
2023-04-09T00:23:38.136Z,100.00
2023-04-09T00:26:06.862Z,100.00
2023-04-09T00:28:35.987Z,100.00
2023-04-09T00:31:04.591Z,100.00
2023-04-09T00:33:34.757Z,100.00
2023-04-09T00:36:03.145Z,100.00
2023-04-09T00:38:31.805Z,100.00
2023-04-09T00:41:00.019Z,100.00
2023-04-09T00:43:28.285Z,100.00
2023-04-09T00:45:56.893Z,100.00
2023-04-09T00:48:25.766Z,100.00
2023-04-09T00:50:55.435Z,100.00
2023-04-09T00:53:24.820Z,100.00
2023-04-09T00:55:54.708Z,100.00
2023-04-09T00:58:23.203Z,100.00
2023-04-09T01:00:51.543Z,100.00
2023-04-09T01:03:21.633Z,100.00
2023-04-09T01:06:04.404Z,100.00
2023-04-09T01:08:46.050Z,100.00
2023-04-09T01:11:27.200Z,100.00
2023-04-09T01:14:07.124Z,100.00
2023-04-09T01:16:39.159Z,100.00
2023-04-09T01:19:29.509Z,100.00
2023-04-09T01:22:00.643Z,100.00
2023-04-09T01:24:43.015Z,100.00
2023-04-09T01:27:15.762Z,100.00
2023-04-09T01:29:58.139Z,100.00
2023-04-09T01:32:28.178Z,100.00
2023-04-09T01:34:58.155Z,100.00
2023-04-09T01:37:27.822Z,100.00
2023-04-09T01:39:56.766Z,100.00
2023-04-09T01:42:26.248Z,100.00
2023-04-09T01:44:56.762Z,100.00
2023-04-09T01:47:26.004Z,100.00
2023-04-09T01:49:55.137Z,100.00
2023-04-09T01:52:24.436Z,100.00
2023-04-09T01:54:52.993Z,100.00
2023-04-09T01:57:22.036Z,100.00
2023-04-09T01:59:50.929Z,100.00
2023-04-09T02:02:27.890Z,100.00
2023-04-09T02:04:59.556Z,100.00
2023-04-09T02:07:36.282Z,100.00
2023-04-09T02:10:06.902Z,100.00
2023-04-09T02:12:37.786Z,100.00
2023-04-09T02:15:10.745Z,100.00
2023-04-09T02:17:40.550Z,100.00
2023-04-09T02:20:11.477Z,100.00
2023-04-09T02:22:40.751Z,100.00
2023-04-09T02:25:09.680Z,100.00
2023-04-09T02:27:38.058Z,100.00
2023-04-09T02:30:08.620Z,100.00
2023-04-09T02:32:36.848Z,100.00
2023-04-09T02:35:08.133Z,100.00
2023-04-09T02:37:36.591Z,100.00
2023-04-09T02:40:05.637Z,100.00
2023-04-09T02:42:33.788Z,100.00
2023-04-09T02:45:01.873Z,100.00
2023-04-09T02:47:33.350Z,100.00
2023-04-09T02:50:02.079Z,100.00
2023-04-09T02:52:35.899Z,100.00
2023-04-09T02:55:04.925Z,100.00
2023-04-09T02:57:33.707Z,100.00
2023-04-09T03:00:02.320Z,100.00
2023-04-09T03:02:31.708Z,100.00
2023-04-09T03:05:00.144Z,100.00
2023-04-09T03:07:28.532Z,100.00
2023-04-09T03:09:58.712Z,100.00
2023-04-09T03:12:27.059Z,100.00
2023-04-09T03:14:55.946Z,100.00
2023-04-09T03:17:27.067Z,100.00
2023-04-09T03:19:56.239Z,100.00
2023-04-09T03:22:25.054Z,100.00
2023-04-09T03:24:54.801Z,100.00
2023-04-09T03:27:24.960Z,100.00
2023-04-09T03:29:57.680Z,100.00
2023-04-09T03:32:34.094Z,100.00
2023-04-09T03:35:03.233Z,100.00
2023-04-09T03:37:32.236Z,100.00
2023-04-09T03:40:00.617Z,100.00
2023-04-09T03:42:34.954Z,100.00
2023-04-09T03:45:04.834Z,100.00
2023-04-09T03:47:38.982Z,100.00
2023-04-09T03:50:08.911Z,100.00
2023-04-09T03:52:51.034Z,100.00
2023-04-09T03:55:20.344Z,100.00
2023-04-09T03:57:51.683Z,100.00
2023-04-09T04:00:23.400Z,100.00
2023-04-09T04:02:52.022Z,100.00
2023-04-09T04:05:35.682Z,100.00
2023-04-09T04:08:09.264Z,100.00
2023-04-09T04:10:37.722Z,100.00
2023-04-09T04:13:09.634Z,100.00
2023-04-09T04:15:47.228Z,100.00
2023-04-09T04:18:17.396Z,100.00
2023-04-09T04:20:49.645Z,100.00
2023-04-09T04:23:18.881Z,100.00
2023-04-09T04:25:54.186Z,100.00
2023-04-09T04:28:30.975Z,100.00
2023-04-09T04:31:01.145Z,100.00
2023-04-09T04:33:34.318Z,100.00
2023-04-09T04:36:07.591Z,100.00
2023-04-09T04:38:43.216Z,100.00
2023-04-09T04:41:20.761Z,100.00
2023-04-09T04:43:57.535Z,100.00
2023-04-09T04:46:27.075Z,100.00
2023-04-09T04:48:55.679Z,100.00
2023-04-09T04:51:25.118Z,100.00
2023-04-09T04:54:03.024Z,100.00
2023-04-09T04:56:31.556Z,100.00
2023-04-09T04:59:15.969Z,100.00
2023-04-09T05:01:58.547Z,100.00
2023-04-09T05:04:28.888Z,100.00
2023-04-09T05:06:58.519Z,100.00
2023-04-09T05:09:27.348Z,100.00
2023-04-09T05:12:05.749Z,100.00
2023-04-09T05:14:36.335Z,100.00
2023-04-09T05:17:04.910Z,100.00
2023-04-09T05:19:42.407Z,100.00
2023-04-09T05:22:12.784Z,100.00
2023-04-09T05:24:41.184Z,100.00
2023-04-09T05:27:10.676Z,100.00
2023-04-09T05:29:40.562Z,100.00
2023-04-09T05:32:11.617Z,100.00
2023-04-09T05:34:41.646Z,100.00
2023-04-09T05:37:10.004Z,100.00
2023-04-09T05:39:38.436Z,100.00
2023-04-09T05:42:07.085Z,100.00
2023-04-09T05:44:55.005Z,100.00
2023-04-09T05:47:23.647Z,100.00
2023-04-09T05:50:07.410Z,100.00
2023-04-09T05:52:36.567Z,100.00
2023-04-09T05:55:08.113Z,100.00
2023-04-09T05:57:53.967Z,100.00
2023-04-09T06:00:24.263Z,100.00
2023-04-09T06:02:52.902Z,100.00
2023-04-09T06:05:22.087Z,100.00
2023-04-09T06:07:50.690Z,100.00
2023-04-09T06:10:19.499Z,100.00
2023-04-09T06:12:50.100Z,100.00
2023-04-09T06:15:18.866Z,100.00
2023-04-09T06:17:48.446Z,100.00
2023-04-09T06:20:17.101Z,100.00
2023-04-09T06:22:45.368Z,100.00
2023-04-09T06:25:14.094Z,100.00
2023-04-09T06:27:42.476Z,100.00
2023-04-09T06:30:12.478Z,100.00
2023-04-09T06:32:53.255Z,100.00
2023-04-09T06:35:25.126Z,100.00
2023-04-09T06:37:53.420Z,100.00
2023-04-09T06:40:23.354Z,100.00
2023-04-09T06:42:52.086Z,100.00
2023-04-09T06:45:33.537Z,100.00
2023-04-09T06:48:02.583Z,100.00
2023-04-09T06:50:32.328Z,100.00
2023-04-09T06:53:00.739Z,100.00
2023-04-09T06:55:29.296Z,100.00
2023-04-09T06:57:57.782Z,100.00
2023-04-09T07:00:26.865Z,100.00
2023-04-09T07:02:55.622Z,100.00
2023-04-09T07:05:24.106Z,100.00
2023-04-09T07:07:54.339Z,100.00
2023-04-09T07:10:22.606Z,100.00
2023-04-09T07:12:51.015Z,100.00
2023-04-09T07:15:19.543Z,100.00
2023-04-09T07:17:48.092Z,100.00
2023-04-09T07:20:16.953Z,100.00
2023-04-09T07:22:45.664Z,100.00
2023-04-09T07:25:15.834Z,100.00
2023-04-09T07:27:44.492Z,100.00
2023-04-09T07:30:13.289Z,100.00
2023-04-09T07:32:42.044Z,100.00
2023-04-09T07:35:11.852Z,100.00
2023-04-09T07:37:40.582Z,100.00
2023-04-09T07:40:10.848Z,100.00
2023-04-09T07:42:40.811Z,100.00
2023-04-09T07:45:10.287Z,100.00
2023-04-09T07:47:40.795Z,100.00
2023-04-09T07:50:11.269Z,100.00
2023-04-09T07:52:39.899Z,100.00
2023-04-09T07:55:08.974Z,100.00
2023-04-09T07:57:38.212Z,100.00
2023-04-09T08:00:10.753Z,100.00
2023-04-09T08:02:42.359Z,100.00
2023-04-09T08:05:11.685Z,100.00
2023-04-09T08:07:41.036Z,100.00
2023-04-09T08:10:15.004Z,100.00
2023-04-09T08:12:43.465Z,100.00
2023-04-09T08:15:14.040Z,100.00
2023-04-09T08:17:42.755Z,100.00
2023-04-09T08:20:12.943Z,100.00
2023-04-09T08:22:42.923Z,100.00
2023-04-09T08:25:11.191Z,100.00
2023-04-09T08:27:39.689Z,100.00
2023-04-09T08:30:11.086Z,100.00
2023-04-09T08:32:40.785Z,100.00
2023-04-09T08:35:10.508Z,100.00
2023-04-09T08:37:39.529Z,95.20
2023-04-09T08:40:10.058Z,91.29
2023-04-09T08:42:44.343Z,94.66
2023-04-09T08:45:15.008Z,88.01
2023-04-09T08:47:46.411Z,82.52
2023-04-09T08:50:16.334Z,83.80
2023-04-09T08:52:47.158Z,81.30
2023-04-09T08:55:15.424Z,80.46
2023-04-09T08:57:44.396Z,80.74
2023-04-09T09:00:14.799Z,80.25
2023-04-09T09:03:04.867Z,78.98
2023-04-09T09:05:41.382Z,77.61
2023-04-09T09:08:12.474Z,76.87
2023-04-09T09:10:43.205Z,74.84
2023-04-09T09:13:20.046Z,72.31
2023-04-09T09:15:50.556Z,72.83
2023-04-09T09:18:20.429Z,76.92
2023-04-09T09:20:49.035Z,77.60
2023-04-09T09:23:17.247Z,76.47
2023-04-09T09:25:46.296Z,73.06
2023-04-09T09:28:14.899Z,74.42
2023-04-09T09:30:43.483Z,75.01
2023-04-09T09:33:13.011Z,71.07
2023-04-09T09:36:00.429Z,71.58
2023-04-09T09:38:28.852Z,70.55
2023-04-09T09:40:57.233Z,74.30
2023-04-09T09:43:25.736Z,71.52
2023-04-09T09:45:55.317Z,73.40
2023-04-09T09:48:23.639Z,75.13
2023-04-09T09:50:55.571Z,75.61
2023-04-09T09:53:27.440Z,77.61
2023-04-09T09:56:01.233Z,76.75
2023-04-09T09:58:38.663Z,73.02
2023-04-09T10:01:12.198Z,70.49
2023-04-09T10:03:44.308Z,70.48
2023-04-09T10:06:13.482Z,70.27
2023-04-09T10:08:45.473Z,70.98
2023-04-09T10:11:13.920Z,68.89
2023-04-09T10:13:50.523Z,71.38
2023-04-09T10:16:20.088Z,75.49
2023-04-09T10:18:48.669Z,74.54
2023-04-09T10:21:33.394Z,72.53
2023-04-09T10:24:06.188Z,71.30
2023-04-09T10:26:35.530Z,72.71
2023-04-09T10:29:08.266Z,76.48
2023-04-09T10:31:52.994Z,73.66
2023-04-09T10:34:24.335Z,74.52
2023-04-09T10:36:56.985Z,76.36
2023-04-09T10:39:32.015Z,74.67
2023-04-09T10:42:02.947Z,71.43
2023-04-09T10:44:32.479Z,68.42
2023-04-09T10:47:01.051Z,68.02
2023-04-09T10:49:39.338Z,66.61
2023-04-09T10:52:11.755Z,63.54
2023-04-09T10:54:51.763Z,64.62
2023-04-09T10:57:22.169Z,63.25
2023-04-09T10:59:53.299Z,65.35
2023-04-09T11:03:14.429Z,64.68
2023-04-09T11:05:49.360Z,64.45
2023-04-09T11:08:18.049Z,62.27
2023-04-09T11:10:50.466Z,62.03
2023-04-09T11:13:21.856Z,62.66
2023-04-09T11:15:50.774Z,63.08
2023-04-09T11:18:23.416Z,63.45
2023-04-09T11:20:56.110Z,62.89
2023-04-09T11:23:25.615Z,64.67
2023-04-09T11:25:56.378Z,64.01
2023-04-09T11:28:25.539Z,65.20
2023-04-09T11:30:54.228Z,61.99
2023-04-09T11:33:22.580Z,60.38
2023-04-09T11:35:52.052Z,60.79
2023-04-09T11:38:20.677Z,61.23
2023-04-09T11:40:49.547Z,60.79
2023-04-09T11:43:21.156Z,59.03
2023-04-09T11:45:50.269Z,59.31
2023-04-09T11:48:19.326Z,57.81
2023-04-09T11:50:48.464Z,57.03
2023-04-09T11:53:21.085Z,58.94
2023-04-09T11:55:51.317Z,57.61
2023-04-09T11:58:24.999Z,58.23
2023-04-09T12:00:56.497Z,56.79
2023-04-09T12:03:33.463Z,56.25
2023-04-09T12:06:03.654Z,56.58
2023-04-09T12:08:34.559Z,56.13
2023-04-09T12:11:11.164Z,54.89
2023-04-09T12:13:43.312Z,54.78
2023-04-09T12:16:12.682Z,53.35
2023-04-09T12:18:41.519Z,53.49
2023-04-09T12:21:09.878Z,54.62
2023-04-09T12:23:38.293Z,55.36
2023-04-09T12:26:06.787Z,56.18
2023-04-09T12:28:35.058Z,55.75
2023-04-09T12:31:04.734Z,58.45
2023-04-09T12:33:34.153Z,61.40
2023-04-09T12:36:02.883Z,58.45
2023-04-09T12:38:31.682Z,61.45
2023-04-09T12:41:01.254Z,57.91
2023-04-09T12:43:29.638Z,58.62
2023-04-09T12:45:57.935Z,57.74
2023-04-09T12:48:28.266Z,58.40
2023-04-09T12:50:56.475Z,57.29
2023-04-09T12:53:24.905Z,55.51
2023-04-09T12:55:53.234Z,56.27
2023-04-09T12:58:21.611Z,54.91
2023-04-09T13:00:50.371Z,57.25
2023-04-09T13:03:18.803Z,56.58
2023-04-09T13:05:48.808Z,55.75
2023-04-09T13:08:17.236Z,54.73
2023-04-09T13:10:45.690Z,56.56
2023-04-09T13:13:13.918Z,56.26
2023-04-09T13:15:45.142Z,56.52
2023-04-09T13:18:14.860Z,56.86
2023-04-09T13:20:43.164Z,57.32
2023-04-09T13:23:12.810Z,58.02
2023-04-09T13:25:41.011Z,58.10
2023-04-09T13:28:09.863Z,58.73
2023-04-09T13:30:38.218Z,62.11
2023-04-09T13:33:06.624Z,58.91
2023-04-09T13:35:34.993Z,58.80
2023-04-09T13:38:03.465Z,57.64
2023-04-09T13:40:33.498Z,57.70
2023-04-09T13:43:02.342Z,59.95
2023-04-09T13:45:30.621Z,57.55
2023-04-09T13:47:59.007Z,56.01
2023-04-09T13:50:27.501Z,56.07
2023-04-09T13:52:55.842Z,56.33
2023-04-09T13:55:24.118Z,56.42
2023-04-09T13:57:54.056Z,57.11
2023-04-09T14:00:23.089Z,57.24
2023-04-09T14:02:51.744Z,55.65
2023-04-09T14:05:23.442Z,56.23
2023-04-09T14:07:51.914Z,58.78
2023-04-09T14:10:20.562Z,58.42
2023-04-09T14:12:48.763Z,57.43
2023-04-09T14:15:18.561Z,57.31
2023-04-09T14:17:46.988Z,57.63
2023-04-09T14:20:15.320Z,56.80
2023-04-09T14:22:48.977Z,57.43
2023-04-09T14:25:17.779Z,56.21
2023-04-09T14:27:46.316Z,58.05
2023-04-09T14:30:15.093Z,56.96
2023-04-09T14:32:44.681Z,55.88
2023-04-09T14:35:13.524Z,55.45
2023-04-09T14:37:42.666Z,55.65
2023-04-09T14:40:11.578Z,56.54
2023-04-09T14:42:40.437Z,57.69
2023-04-09T14:45:10.123Z,60.18
2023-04-09T14:47:38.754Z,58.15
2023-04-09T14:50:10.284Z,59.26
2023-04-09T14:52:38.530Z,59.52
2023-04-09T14:55:12.170Z,59.92
2023-04-09T14:57:42.471Z,58.56
2023-04-09T15:00:13.674Z,59.65
2023-04-09T15:02:42.537Z,58.46
2023-04-09T15:05:13.421Z,59.03
2023-04-09T15:07:41.718Z,56.66
2023-04-09T15:10:12.383Z,57.39
2023-04-09T15:12:40.754Z,56.48
2023-04-09T15:15:10.541Z,57.87
2023-04-09T15:17:38.785Z,56.89
2023-04-09T15:20:08.688Z,56.57
2023-04-09T15:22:38.272Z,57.47
2023-04-09T15:25:07.861Z,57.82
2023-04-09T15:27:36.409Z,57.95
2023-04-09T15:30:05.853Z,57.28
2023-04-09T15:32:34.331Z,57.35
2023-04-09T15:35:02.801Z,57.08
2023-04-09T15:37:31.088Z,57.33
2023-04-09T15:40:00.906Z,56.33
2023-04-09T15:42:29.693Z,56.69
2023-04-09T15:44:58.117Z,57.21
2023-04-09T15:47:26.441Z,57.08
2023-04-09T15:49:55.866Z,56.17
2023-04-09T15:52:24.253Z,56.52
2023-04-09T15:54:52.576Z,56.16
2023-04-09T15:57:22.244Z,56.37
2023-04-09T15:59:52.581Z,56.25
2023-04-09T16:02:26.545Z,56.74
2023-04-09T16:04:55.158Z,57.99
2023-04-09T16:07:23.658Z,57.68
2023-04-09T16:09:51.923Z,58.56
2023-04-09T16:12:23.302Z,59.65
2023-04-09T16:14:52.705Z,60.82
2023-04-09T16:17:21.287Z,60.55
2023-04-09T16:19:49.745Z,60.27
2023-04-09T16:22:18.253Z,61.18
2023-04-09T16:24:46.559Z,61.02
2023-04-09T16:27:16.688Z,62.44
2023-04-09T16:29:46.439Z,61.80
2023-04-09T16:32:14.896Z,61.07
2023-04-09T16:34:43.205Z,59.94
2023-04-09T16:37:13.015Z,58.36
2023-04-09T16:39:41.205Z,58.28
2023-04-09T16:42:09.485Z,58.02
2023-04-09T16:44:37.676Z,58.91
2023-04-09T16:47:08.203Z,58.21
2023-04-09T16:49:36.433Z,59.74
2023-04-09T16:52:04.658Z,61.13
2023-04-09T16:54:37.583Z,61.43
2023-04-09T16:57:05.999Z,62.40
2023-04-09T16:59:34.220Z,63.48
2023-04-09T17:02:02.600Z,64.42
2023-04-09T17:04:34.358Z,66.28
2023-04-09T17:07:05.869Z,65.74
2023-04-09T17:09:34.298Z,65.10
2023-04-09T17:12:02.625Z,67.68
2023-04-09T17:14:31.613Z,66.22
2023-04-09T17:16:59.814Z,67.84
2023-04-09T17:19:28.216Z,67.03
2023-04-09T17:21:57.934Z,67.57
2023-04-09T17:24:26.216Z,67.88
2023-04-09T17:26:54.514Z,67.94
2023-04-09T17:29:22.683Z,69.02
2023-04-09T17:31:52.186Z,69.53
2023-04-09T17:34:20.463Z,70.13
2023-04-09T17:36:50.181Z,70.94
2023-04-09T17:39:19.713Z,71.82
2023-04-09T17:41:47.933Z,72.16
2023-04-09T17:44:17.163Z,72.95
2023-04-09T17:46:45.903Z,74.27
2023-04-09T17:49:14.130Z,74.59
2023-04-09T17:51:45.444Z,74.71
2023-04-09T17:54:14.862Z,76.00
2023-04-09T17:56:44.472Z,77.33
2023-04-09T17:59:12.633Z,79.01
2023-04-09T18:01:41.034Z,79.89
2023-04-09T18:04:09.570Z,81.55
2023-04-09T18:06:44.751Z,82.79
2023-04-09T18:09:13.391Z,84.53
2023-04-09T18:11:42.696Z,85.88
2023-04-09T18:14:12.432Z,87.40
2023-04-09T18:16:41.323Z,88.88
2023-04-09T18:19:11.852Z,89.23
2023-04-09T18:21:43.184Z,91.29
2023-04-09T18:24:11.526Z,91.63
2023-04-09T18:26:39.804Z,93.33
2023-04-09T18:29:08.416Z,95.71
2023-04-09T18:31:38.006Z,96.24
2023-04-09T18:34:06.231Z,96.05
2023-04-09T18:36:34.410Z,98.25
2023-04-09T18:39:04.854Z,99.40
2023-04-09T18:41:33.087Z,100.00
2023-04-09T18:44:01.398Z,100.00
2023-04-09T18:46:29.650Z,100.00
2023-04-09T18:48:59.400Z,100.00
2023-04-09T18:51:28.003Z,100.00
2023-04-09T18:53:56.227Z,100.00
2023-04-09T18:56:24.674Z,99.50
2023-04-09T18:58:52.932Z,100.00
2023-04-09T19:01:21.776Z,100.00
2023-04-09T19:03:52.230Z,100.00
2023-04-09T19:10:14.666Z,100.00
2023-04-09T19:12:53.773Z,100.00
2023-04-09T19:15:40.876Z,100.00
2023-04-09T19:18:21.040Z,100.00
2023-04-09T19:20:59.404Z,100.00
2023-04-09T19:24:55.550Z,100.00
2023-04-09T19:27:28.538Z,100.00
2023-04-09T19:33:55.830Z,100.00
2023-04-09T19:36:24.281Z,100.00
2023-04-09T19:38:58.819Z,100.00
2023-04-09T20:23:38.960Z,100.00
2023-04-09T20:26:39.140Z,100.00
2023-04-09T20:29:56.467Z,100.00
2023-04-09T20:32:28.783Z,100.00
2023-04-09T20:35:00.087Z,100.00
2023-04-09T20:38:08.731Z,100.00
2023-04-09T20:41:02.303Z,100.00
2023-04-09T20:43:35.882Z,100.00
2023-04-09T20:49:14.649Z,100.00
2023-04-09T20:51:49.175Z,100.00
2023-04-09T20:54:23.860Z,100.00
2023-04-09T20:56:54.308Z,100.00
2023-04-09T20:59:23.552Z,100.00
2023-04-09T21:01:52.541Z,100.00
2023-04-09T21:04:24.991Z,100.00
2023-04-09T21:06:56.730Z,100.00
2023-04-09T21:09:26.184Z,100.00
2023-04-09T21:11:56.137Z,100.00
2023-04-09T21:14:24.794Z,100.00
2023-04-09T21:16:53.572Z,100.00
2023-04-09T21:19:24.848Z,100.00
2023-04-09T21:21:56.427Z,100.00
2023-04-09T21:24:25.277Z,100.00
2023-04-09T21:26:55.442Z,100.00
2023-04-09T21:29:25.592Z,100.00
2023-04-09T21:31:56.711Z,100.00
2023-04-09T21:34:30.378Z,100.00
2023-04-09T21:36:59.167Z,100.00
2023-04-09T21:39:33.568Z,100.00
2023-04-09T21:42:06.207Z,100.00
2023-04-09T21:44:38.890Z,100.00
2023-04-09T21:47:09.005Z,100.00
2023-04-09T21:49:40.343Z,100.00
2023-04-09T21:52:14.544Z,100.00
2023-04-09T21:54:45.590Z,100.00
2023-04-09T21:57:16.875Z,100.00
2023-04-09T21:59:46.378Z,100.00
2023-04-09T22:02:18.090Z,100.00
2023-04-09T22:04:51.196Z,100.00
2023-04-09T22:07:28.067Z,100.00
2023-04-09T22:09:57.907Z,100.00
2023-04-09T22:12:27.841Z,100.00
2023-04-09T22:14:58.629Z,100.00
2023-04-09T22:17:28.074Z,100.00
2023-04-09T22:19:59.753Z,100.00
2023-04-09T22:22:33.723Z,100.00
2023-04-09T22:25:02.695Z,100.00
2023-04-09T22:27:33.955Z,100.00
2023-04-09T22:30:02.554Z,100.00
2023-04-09T22:32:33.297Z,100.00
2023-04-09T22:35:02.030Z,100.00
2023-04-09T22:37:30.731Z,100.00
2023-04-09T22:39:59.058Z,100.00
2023-04-09T22:42:29.586Z,100.00
2023-04-09T22:45:00.881Z,100.00
2023-04-09T22:47:29.530Z,100.00
2023-04-09T22:49:58.094Z,100.00
2023-04-09T22:52:26.584Z,100.00
2023-04-09T22:54:55.601Z,100.00
2023-04-09T22:57:26.946Z,100.00
2023-04-09T22:59:55.467Z,100.00
2023-04-09T23:02:28.306Z,100.00
2023-04-09T23:04:57.382Z,100.00
2023-04-09T23:07:30.105Z,100.00
2023-04-09T23:09:58.487Z,100.00
2023-04-09T23:12:27.035Z,100.00
2023-04-09T23:14:56.791Z,100.00
2023-04-09T23:17:29.199Z,100.00
2023-04-09T23:19:57.376Z,100.00
2023-04-09T23:22:27.377Z,100.00
2023-04-09T23:24:55.519Z,100.00
2023-04-09T23:27:28.457Z,100.00
2023-04-09T23:29:57.052Z,100.00
2023-04-09T23:32:25.870Z,100.00
2023-04-09T23:34:57.316Z,100.00
2023-04-09T23:37:27.183Z,100.00
2023-04-09T23:39:55.994Z,100.00
2023-04-09T23:42:24.325Z,100.00
2023-04-09T23:44:56.625Z,100.00
2023-04-09T23:47:25.427Z,100.00
2023-04-09T23:49:54.993Z,100.00
2023-04-09T23:52:23.143Z,100.00
2023-04-09T23:54:52.029Z,100.00
2023-04-09T23:57:20.389Z,100.00
2023-04-09T23:59:48.869Z,100.00
